createdAt,value
2022-12-09T00:00:22.712Z,-1.75
2022-12-09T00:02:54.892Z,-1.76
2022-12-09T00:05:27.451Z,-1.74
2022-12-09T00:07:59.496Z,-1.73
2022-12-09T00:10:31.706Z,-1.74
2022-12-09T00:13:03.962Z,-1.73
2022-12-09T00:15:36.203Z,-1.70
2022-12-09T00:18:09.174Z,-1.69
2022-12-09T00:20:41.634Z,-1.70
2022-12-09T00:23:13.658Z,-1.70
2022-12-09T00:25:45.988Z,-1.68
2022-12-09T00:28:18.131Z,-1.68
2022-12-09T00:30:50.292Z,-1.64
2022-12-09T00:33:22.497Z,-1.63
2022-12-09T00:35:54.722Z,-1.62
2022-12-09T00:38:27.133Z,-1.61
2022-12-09T00:40:59.657Z,-1.61
2022-12-09T00:43:32.280Z,-1.60
2022-12-09T00:46:04.863Z,-1.59
2022-12-09T00:48:38.824Z,-1.59
2022-12-09T00:51:12.017Z,-1.57
2022-12-09T00:53:44.176Z,-1.44
2022-12-09T00:56:16.909Z,-1.54
2022-12-09T00:58:49.154Z,-1.55
2022-12-09T01:01:21.754Z,-1.55
2022-12-09T01:03:54.321Z,-1.56
2022-12-09T01:06:28.130Z,-1.55
2022-12-09T01:09:00.725Z,-1.55
2022-12-09T01:11:32.958Z,-1.52
2022-12-09T01:14:05.758Z,-1.52
2022-12-09T01:16:38.313Z,-1.52
2022-12-09T01:19:13.679Z,-1.51
2022-12-09T01:21:45.773Z,-1.51
2022-12-09T01:24:17.761Z,-1.49
2022-12-09T01:26:50.745Z,-1.50
2022-12-09T01:29:24.110Z,-1.50
2022-12-09T01:31:57.410Z,-1.48
2022-12-09T01:34:29.647Z,-1.50
2022-12-09T01:37:01.491Z,-1.36
2022-12-09T01:39:34.610Z,-1.48
2022-12-09T01:42:08.070Z,-1.51
2022-12-09T01:44:40.470Z,-1.50
2022-12-09T01:47:15.752Z,-1.52
2022-12-09T01:49:48.419Z,-1.53
2022-12-09T01:52:23.833Z,-1.52
2022-12-09T01:54:56.832Z,-1.51
2022-12-09T01:57:29.030Z,-1.51
2022-12-09T02:00:01.319Z,-1.49
2022-12-09T02:02:38.870Z,-1.47
2022-12-09T02:05:12.135Z,-1.45
2022-12-09T02:07:45.676Z,-1.45
2022-12-09T02:10:20.489Z,-1.46
2022-12-09T02:13:07.355Z,-1.46
2022-12-09T02:15:58.005Z,-1.46
2022-12-09T02:18:45.600Z,-1.48
2022-12-09T02:21:29.520Z,-1.49
2022-12-09T02:24:20.727Z,-1.47
2022-12-09T02:27:18.749Z,-1.48
2022-12-09T02:29:54.077Z,-1.51
2022-12-09T02:32:35.466Z,-1.51
2022-12-09T02:35:18.586Z,-1.52
2022-12-09T02:37:57.093Z,-1.55
2022-12-09T02:40:36.830Z,-1.57
2022-12-09T02:43:11.117Z,-1.59
2022-12-09T02:45:45.236Z,-1.60
2022-12-09T02:48:20.588Z,-1.62
2022-12-09T02:50:55.357Z,-1.64
2022-12-09T02:53:29.601Z,-1.64
2022-12-09T02:56:03.310Z,-1.64
2022-12-09T02:58:37.342Z,-1.65
2022-12-09T03:01:22.259Z,-1.64
2022-12-09T03:03:55.832Z,-1.62
2022-12-09T03:06:30.897Z,-1.60
2022-12-09T03:09:06.243Z,-1.58
2022-12-09T03:11:40.957Z,-1.56
2022-12-09T03:14:18.924Z,-1.53
2022-12-09T03:17:06.208Z,-1.53
2022-12-09T03:19:44.155Z,-1.49
2022-12-09T03:22:19.120Z,-1.48
2022-12-09T03:25:01.161Z,-1.46
2022-12-09T03:27:41.263Z,-1.45
2022-12-09T03:30:14.832Z,-1.42
2022-12-09T03:32:48.982Z,-1.40
2022-12-09T03:35:23.945Z,-1.39
2022-12-09T03:37:56.608Z,-1.39
2022-12-09T03:40:32.554Z,-1.38
2022-12-09T03:43:07.844Z,-1.38
2022-12-09T03:45:42.557Z,-1.36
2022-12-09T03:48:15.432Z,-1.34
2022-12-09T03:50:57.422Z,-1.34
2022-12-09T03:53:47.376Z,-1.34
2022-12-09T03:56:23.697Z,-1.35
2022-12-09T03:58:57.883Z,-1.34
2022-12-09T04:01:32.032Z,-1.36
2022-12-09T04:04:05.002Z,-1.38
2022-12-09T04:06:37.360Z,-1.24
2022-12-09T04:09:11.417Z,-1.35
2022-12-09T04:11:46.414Z,-1.36
2022-12-09T04:14:21.766Z,-1.36
2022-12-09T04:16:57.601Z,-1.36
2022-12-09T04:19:30.920Z,-1.33
2022-12-09T04:22:06.281Z,-1.30
2022-12-09T04:24:40.053Z,-1.25
2022-12-09T04:27:14.587Z,-1.21
2022-12-09T04:29:49.323Z,-1.17
2022-12-09T04:32:23.792Z,-1.12
2022-12-09T04:34:56.887Z,-1.10
2022-12-09T04:37:30.154Z,-1.08
2022-12-09T04:40:04.075Z,-1.08
2022-12-09T04:42:37.837Z,-1.07
2022-12-09T04:45:11.384Z,-1.08
2022-12-09T04:47:44.009Z,-1.09
2022-12-09T04:50:17.299Z,-0.91
2022-12-09T04:52:50.943Z,-1.07
2022-12-09T04:55:26.964Z,-1.08
2022-12-09T04:58:00.128Z,-1.08
2022-12-09T05:00:36.247Z,-1.06
2022-12-09T05:03:09.984Z,-1.07
2022-12-09T05:05:43.261Z,-1.07
2022-12-09T05:08:16.849Z,-1.07
2022-12-09T05:10:51.250Z,-1.08
2022-12-09T05:13:24.321Z,-1.07
2022-12-09T05:16:12.123Z,-1.07
2022-12-09T05:18:40.440Z,-1.05
2022-12-09T05:21:16.646Z,-1.01
2022-12-09T05:23:49.813Z,-1.06
2022-12-09T05:26:24.333Z,-1.09
2022-12-09T05:28:57.302Z,-1.06
2022-12-09T05:31:31.898Z,-1.07
2022-12-09T05:34:05.621Z,-1.06
2022-12-09T05:36:39.400Z,-1.10
2022-12-09T05:39:12.797Z,-1.10
2022-12-09T05:41:47.447Z,-1.08
2022-12-09T05:44:19.939Z,-1.05
2022-12-09T05:46:52.883Z,-1.07
2022-12-09T05:49:26.902Z,-1.08
2022-12-09T05:52:00.922Z,-1.05
2022-12-09T05:54:33.538Z,-0.88
2022-12-09T05:57:06.601Z,-0.99
2022-12-09T05:59:40.305Z,-0.99
2022-12-09T06:02:14.015Z,-0.98
2022-12-09T06:04:47.530Z,-0.96
2022-12-09T06:07:22.666Z,-0.93
2022-12-09T06:09:56.477Z,-0.93
2022-12-09T06:12:31.092Z,-0.91
2022-12-09T06:15:04.062Z,-0.90
2022-12-09T06:17:37.166Z,-0.86
2022-12-09T06:20:10.279Z,-0.83
2022-12-09T06:22:43.647Z,-0.84
2022-12-09T06:25:16.977Z,-0.76
2022-12-09T06:27:49.187Z,-0.71
2022-12-09T06:30:22.287Z,-0.68
2022-12-09T06:32:54.909Z,-0.66
2022-12-09T06:35:28.665Z,-0.65
2022-12-09T06:38:01.158Z,-0.62
2022-12-09T06:40:34.090Z,-0.60
2022-12-09T06:43:07.508Z,-0.57
2022-12-09T06:45:41.762Z,-0.37
2022-12-09T06:48:16.206Z,-0.49
2022-12-09T06:50:53.430Z,-0.46
2022-12-09T06:53:26.529Z,-0.45
2022-12-09T06:56:11.043Z,-0.42
2022-12-09T06:58:41.208Z,-0.42
2022-12-09T07:01:17.335Z,-0.41
2022-12-09T07:03:54.771Z,-0.40
2022-12-09T07:06:39.291Z,-0.39
2022-12-09T07:09:20.333Z,-0.37
2022-12-09T07:11:54.750Z,-0.34
2022-12-09T07:14:27.665Z,-0.28
2022-12-09T07:17:03.857Z,-0.29
2022-12-09T07:19:37.162Z,-0.28
2022-12-09T07:22:10.285Z,-0.28
2022-12-09T07:24:43.932Z,-0.28
2022-12-09T07:27:19.746Z,-0.27
2022-12-09T07:29:52.308Z,-0.28
2022-12-09T07:32:26.780Z,-0.28
2022-12-09T07:35:00.399Z,-0.29
2022-12-09T07:37:34.999Z,-0.29
2022-12-09T07:40:09.975Z,-0.31
2022-12-09T07:42:44.095Z,-0.32
2022-12-09T07:45:17.157Z,-0.37
2022-12-09T07:47:50.939Z,-0.33
2022-12-09T07:50:26.022Z,-0.34
2022-12-09T07:53:01.374Z,-0.31
2022-12-09T07:55:36.800Z,-0.29
2022-12-09T07:58:09.523Z,-0.29
2022-12-09T08:00:42.244Z,-0.26
2022-12-09T08:03:16.235Z,-0.26
2022-12-09T08:05:50.154Z,-0.23
2022-12-09T08:08:23.660Z,-0.08
2022-12-09T08:10:58.463Z,-0.16
2022-12-09T08:13:31.078Z,-0.12
2022-12-09T08:16:08.617Z,0.04
2022-12-09T08:18:42.288Z,-0.10
2022-12-09T08:21:21.966Z,-0.08
2022-12-09T08:23:57.118Z,-0.16
2022-12-09T08:26:33.288Z,-0.14
2022-12-09T08:29:12.197Z,-0.25
2022-12-09T08:31:45.598Z,-0.31
2022-12-09T08:34:19.078Z,-0.32
2022-12-09T08:36:52.967Z,-0.34
2022-12-09T08:39:27.797Z,-0.36
2022-12-09T08:42:00.938Z,-0.38
2022-12-09T08:44:34.943Z,-0.36
2022-12-09T08:47:07.563Z,-0.34
2022-12-09T08:49:41.170Z,-0.34
2022-12-09T08:52:14.276Z,-0.32
2022-12-09T08:54:48.159Z,-0.32
2022-12-09T08:57:26.931Z,-0.30
2022-12-09T09:00:02.206Z,-0.28
2022-12-09T09:02:35.656Z,-0.22
2022-12-09T09:05:09.507Z,-0.20
2022-12-09T09:07:42.844Z,-0.17
2022-12-09T09:10:18.235Z,-0.16
2022-12-09T09:12:51.360Z,-0.18
2022-12-09T09:15:25.180Z,-0.17
2022-12-09T09:18:00.436Z,-0.18
2022-12-09T09:20:33.573Z,-0.16
2022-12-09T09:23:06.187Z,-0.16
2022-12-09T09:25:46.343Z,-0.13
2022-12-09T09:28:20.023Z,-0.12
2022-12-09T09:31:04.315Z,-0.10
2022-12-09T09:33:37.283Z,-0.14
2022-12-09T09:36:18.200Z,-0.14
2022-12-09T09:38:53.283Z,-0.20
2022-12-09T09:41:50.073Z,-0.21
2022-12-09T09:44:40.434Z,-0.21
2022-12-09T09:47:23.180Z,-0.16
2022-12-09T09:50:17.472Z,-0.13
2022-12-09T09:52:51.309Z,-0.08
2022-12-09T09:55:32.430Z,0.04
2022-12-09T09:58:23.156Z,-0.11
2022-12-09T10:01:12.330Z,-0.14
2022-12-09T10:03:51.156Z,-0.13
2022-12-09T10:06:43.868Z,-0.12
2022-12-09T10:09:23.244Z,-0.12
2022-12-09T10:12:15.982Z,-0.11
2022-12-09T10:14:55.222Z,-0.09
2022-12-09T10:17:42.860Z,-0.11
2022-12-09T10:20:19.011Z,-0.17
2022-12-09T10:23:04.215Z,-0.17
2022-12-09T10:25:40.930Z,-0.15
2022-12-09T10:28:20.961Z,-0.13
2022-12-09T10:30:55.799Z,-0.10
2022-12-09T10:33:32.444Z,-0.06
2022-12-09T10:36:07.794Z,-0.02
2022-12-09T10:38:42.716Z,0.01
2022-12-09T10:41:28.930Z,0.01
2022-12-09T10:44:05.240Z,-0.01
2022-12-09T10:46:37.960Z,0.00
2022-12-09T10:49:13.683Z,0.03
2022-12-09T10:51:51.755Z,0.07
2022-12-09T10:54:40.152Z,0.11
2022-12-09T10:57:16.414Z,0.12
2022-12-09T11:00:11.154Z,0.13
2022-12-09T11:02:47.740Z,0.13
2022-12-09T11:05:28.761Z,0.13
2022-12-09T11:08:03.253Z,0.13
2022-12-09T11:10:39.997Z,0.15
2022-12-09T11:13:16.904Z,0.19
2022-12-09T11:15:57.702Z,0.20
2022-12-09T11:18:33.935Z,0.16
2022-12-09T11:21:08.992Z,0.16
2022-12-09T11:23:45.545Z,0.16
2022-12-09T11:26:24.662Z,0.15
2022-12-09T11:29:04.727Z,0.13
2022-12-09T11:31:45.814Z,0.12
2022-12-09T11:34:26.526Z,0.12
2022-12-09T11:37:03.722Z,0.13
2022-12-09T11:39:38.933Z,0.09
2022-12-09T11:42:22.743Z,0.07
2022-12-09T11:45:06.278Z,0.03
2022-12-09T11:48:22.609Z,0.00
2022-12-09T11:50:26.091Z,-0.02
2022-12-09T11:53:13.911Z,-0.06
2022-12-09T11:55:52.530Z,-0.11
2022-12-09T11:58:50.119Z,-0.17
2022-12-09T12:01:29.363Z,-0.20
2022-12-09T12:04:09.657Z,-0.28
2022-12-09T12:06:56.263Z,-0.33
2022-12-09T12:09:32.104Z,-0.36
2022-12-09T12:12:17.560Z,-0.40
2022-12-09T12:14:51.864Z,-0.43
2022-12-09T12:17:40.457Z,-0.43
2022-12-09T12:20:14.965Z,-0.25
2022-12-09T12:23:13.780Z,-0.40
2022-12-09T12:26:16.773Z,-0.44
2022-12-09T12:29:06.897Z,-0.44
2022-12-09T12:31:54.471Z,-0.44
2022-12-09T12:34:39.846Z,-0.42
2022-12-09T12:37:30.912Z,-0.38
2022-12-09T12:40:10.825Z,-0.42
2022-12-09T12:42:48.335Z,-0.48
2022-12-09T12:45:42.092Z,-0.58
2022-12-09T12:48:18.819Z,-0.63
2022-12-09T12:51:13.550Z,-0.66
2022-12-09T12:53:47.240Z,-0.70
2022-12-09T12:56:32.298Z,-0.59
2022-12-09T12:59:25.990Z,-0.74
2022-12-09T13:02:21.296Z,-0.68
2022-12-09T13:05:00.513Z,-0.79
2022-12-09T13:07:45.890Z,-0.83
2022-12-09T13:10:24.126Z,-0.86
2022-12-09T13:13:01.246Z,-0.87
2022-12-09T13:15:40.642Z,-0.86
2022-12-09T13:18:16.729Z,-0.88
2022-12-09T13:20:52.985Z,-0.90
2022-12-09T13:23:46.750Z,-0.97
2022-12-09T13:26:26.701Z,-1.01
2022-12-09T13:29:35.754Z,-1.00
2022-12-09T13:32:18.015Z,-1.06
2022-12-09T13:34:55.076Z,-0.92
2022-12-09T13:37:39.383Z,-1.09
2022-12-09T13:40:24.340Z,-1.10
2022-12-09T13:43:06.676Z,-1.12
2022-12-09T13:45:47.817Z,-1.13
2022-12-09T13:48:24.015Z,-1.14
2022-12-09T13:51:00.351Z,-1.11
2022-12-09T13:53:40.096Z,-1.12
2022-12-09T13:56:29.444Z,-1.13
2022-12-09T13:59:25.001Z,-1.15
2022-12-09T14:02:17.927Z,-1.14
2022-12-09T14:05:00.200Z,-1.11
2022-12-09T14:07:38.208Z,-1.12
2022-12-09T14:10:43.270Z,-1.12
2022-12-09T14:13:31.536Z,-1.13
2022-12-09T14:16:29.120Z,-1.07
2022-12-09T14:19:21.542Z,-1.15
2022-12-09T14:22:20.357Z,-1.19
2022-12-09T14:24:56.469Z,-1.19
2022-12-09T14:27:31.586Z,-1.17
2022-12-09T14:30:07.885Z,-1.18
2022-12-09T14:32:55.224Z,-1.17
2022-12-09T14:35:49.410Z,-1.23
2022-12-09T14:39:08.291Z,-1.22
2022-12-09T14:41:30.649Z,-1.23
2022-12-09T14:44:23.063Z,-1.26
2022-12-09T14:47:03.334Z,-1.27
2022-12-09T14:49:42.784Z,-1.25
2022-12-09T14:52:16.457Z,-1.23
2022-12-09T14:54:53.460Z,-1.22
2022-12-09T14:57:30.298Z,-1.21
2022-12-09T15:00:06.309Z,-1.19
2022-12-09T15:02:38.872Z,-1.18
2022-12-09T15:05:18.031Z,-1.19
2022-12-09T15:07:52.449Z,-1.15
2022-12-09T15:10:32.078Z,-1.13
2022-12-09T15:13:03.977Z,-1.13
2022-12-09T15:15:39.708Z,-1.11
2022-12-09T15:18:24.288Z,-1.08
2022-12-09T15:21:01.921Z,-1.07
2022-12-09T15:23:41.294Z,-1.01
2022-12-09T15:26:23.242Z,-1.03
2022-12-09T15:28:59.770Z,-1.03
2022-12-09T15:31:35.137Z,-0.99
2022-12-09T15:34:15.217Z,-1.02
2022-12-09T15:36:51.841Z,-0.97
2022-12-09T15:39:31.047Z,-0.99
2022-12-09T15:42:08.147Z,-1.00
2022-12-09T15:45:03.920Z,-0.98
2022-12-09T15:47:46.052Z,-0.99
2022-12-09T15:50:33.427Z,-0.99
2022-12-09T15:53:09.679Z,-1.02
2022-12-09T15:55:45.308Z,-1.03
2022-12-09T15:58:24.247Z,-1.03
2022-12-09T16:00:58.160Z,-1.01
2022-12-09T16:03:35.507Z,-0.99
2022-12-09T16:06:10.164Z,-0.96
2022-12-09T16:08:45.524Z,-0.99
2022-12-09T16:11:39.270Z,-0.96
2022-12-09T16:14:13.324Z,-0.95
2022-12-09T16:16:49.172Z,-0.94
2022-12-09T16:19:34.936Z,-0.90
2022-12-09T16:22:11.405Z,-0.91
2022-12-09T16:27:24.835Z,-0.91
2022-12-09T16:30:01.200Z,-0.89
2022-12-09T16:32:43.113Z,-0.87
2022-12-09T16:35:19.950Z,-0.87
2022-12-09T16:38:01.381Z,-0.85
2022-12-09T16:40:49.130Z,-0.83
2022-12-09T16:43:24.065Z,-0.83
2022-12-09T16:46:00.322Z,-0.83
2022-12-09T16:48:33.453Z,-0.81
2022-12-09T16:51:18.248Z,-0.82
2022-12-09T16:53:53.840Z,-0.83
2022-12-09T16:56:28.714Z,-0.83
2022-12-09T16:59:00.993Z,-0.84
2022-12-09T17:01:36.947Z,-0.83
2022-12-09T17:04:17.999Z,-0.83
2022-12-09T17:06:50.354Z,-0.83
2022-12-09T17:09:22.536Z,-0.83
2022-12-09T17:11:54.749Z,-0.85
2022-12-09T17:14:27.615Z,-0.84
2022-12-09T17:17:03.368Z,-0.80
2022-12-09T17:19:38.197Z,-0.81
2022-12-09T17:22:10.520Z,-0.76
2022-12-09T17:24:42.818Z,-0.74
2022-12-09T17:27:14.880Z,-0.72
2022-12-09T17:29:47.888Z,-0.70
2022-12-09T17:32:20.262Z,-0.71
2022-12-09T17:34:54.279Z,-0.67
2022-12-09T17:37:26.555Z,-0.67
2022-12-09T17:40:06.624Z,-0.64
2022-12-09T17:42:33.885Z,-0.63
2022-12-09T17:45:07.344Z,-0.64
2022-12-09T17:47:39.618Z,-0.64
2022-12-09T17:50:11.752Z,-0.63
2022-12-09T17:52:43.806Z,-0.62
2022-12-09T17:55:15.868Z,-0.61
2022-12-09T17:57:53.931Z,-0.60
2022-12-09T18:00:21.795Z,-0.60
2022-12-09T18:02:53.757Z,-0.59
2022-12-09T18:05:25.819Z,-0.58
2022-12-09T18:07:58.393Z,-0.59
2022-12-09T18:10:30.350Z,-0.59
2022-12-09T18:13:03.026Z,-0.59
2022-12-09T18:15:39.657Z,-0.62
2022-12-09T18:18:12.186Z,-0.61
2022-12-09T18:20:44.276Z,-0.60
2022-12-09T18:23:16.373Z,-0.58
2022-12-09T18:25:49.043Z,-0.56
2022-12-09T18:28:21.112Z,-0.56
2022-12-09T18:30:53.334Z,-0.53
2022-12-09T18:33:25.995Z,-0.51
2022-12-09T18:35:58.176Z,-0.52
2022-12-09T18:38:30.742Z,-0.50
2022-12-09T18:41:02.942Z,-0.51
2022-12-09T18:43:38.129Z,-0.51
2022-12-09T18:46:13.782Z,-0.50
2022-12-09T18:48:46.840Z,-0.51
2022-12-09T18:51:21.459Z,-0.50
2022-12-09T18:53:54.591Z,-0.47
2022-12-09T18:56:27.399Z,-0.48
2022-12-09T18:59:08.968Z,-0.47
2022-12-09T19:01:35.988Z,-0.48
2022-12-09T19:04:09.329Z,-0.49
2022-12-09T19:06:43.131Z,-0.46
2022-12-09T19:09:18.191Z,-0.46
2022-12-09T19:11:52.182Z,-0.47
2022-12-09T19:14:25.464Z,-0.48
2022-12-09T19:16:57.937Z,-0.46
2022-12-09T19:19:30.798Z,-0.44
2022-12-09T19:22:03.792Z,-0.45
2022-12-09T19:24:42.678Z,-0.47
2022-12-09T19:27:10.801Z,-0.46
2022-12-09T19:29:42.946Z,-0.48
2022-12-09T19:32:50.854Z,-0.47
2022-12-09T19:34:48.628Z,-0.48
2022-12-09T19:37:20.527Z,-0.48
2022-12-09T19:39:53.245Z,-0.49
2022-12-09T19:42:25.586Z,-0.48
2022-12-09T19:45:02.334Z,-0.47
2022-12-09T19:47:33.161Z,-0.45
2022-12-09T19:50:05.939Z,-0.46
2022-12-09T19:52:38.175Z,-0.47
2022-12-09T19:55:10.847Z,-0.49
2022-12-09T19:57:43.125Z,-0.50
2022-12-09T20:00:15.750Z,-0.55
2022-12-09T20:02:49.583Z,-0.60
2022-12-09T20:05:21.674Z,-0.62
2022-12-09T20:07:54.320Z,-0.64
2022-12-09T20:10:26.325Z,-0.67
2022-12-09T20:12:58.519Z,-0.70
2022-12-09T20:15:30.783Z,-0.72
2022-12-09T20:18:02.663Z,-0.70
2022-12-09T20:20:36.225Z,-0.69
2022-12-09T20:23:08.595Z,-0.67
2022-12-09T20:25:40.995Z,-0.63
2022-12-09T20:28:13.059Z,-0.61
2022-12-09T20:30:45.690Z,-0.57
2022-12-09T20:33:17.783Z,-0.57
2022-12-09T20:35:49.964Z,-0.56
2022-12-09T20:38:22.353Z,-0.53
2022-12-09T20:40:54.382Z,-0.51
2022-12-09T20:43:26.607Z,-0.48
2022-12-09T20:45:58.625Z,-0.48
2022-12-09T20:48:31.502Z,-0.46
2022-12-09T20:51:08.101Z,-0.44
2022-12-09T20:53:43.074Z,-0.44
2022-12-09T20:56:15.722Z,-0.43
2022-12-09T20:58:51.148Z,-0.43
2022-12-09T21:01:26.180Z,-0.42
2022-12-09T21:03:59.937Z,-0.43
2022-12-09T21:06:35.037Z,-0.46
2022-12-09T21:09:10.492Z,-0.50
2022-12-09T21:11:42.980Z,-0.54
2022-12-09T21:14:18.535Z,-0.57
2022-12-09T21:16:53.634Z,-0.58
2022-12-09T21:19:27.635Z,-0.58
2022-12-09T21:22:00.362Z,-0.61
2022-12-09T21:24:33.958Z,-0.62
2022-12-09T21:27:06.545Z,-0.62
2022-12-09T21:29:39.282Z,-0.64
2022-12-09T21:32:11.229Z,-0.60
2022-12-09T21:34:43.471Z,-0.61
2022-12-09T21:37:15.629Z,-0.60
2022-12-09T21:39:47.931Z,-0.61
2022-12-09T21:42:19.937Z,-0.64
2022-12-09T21:44:51.860Z,-0.68
2022-12-09T21:47:24.351Z,-0.72
2022-12-09T21:49:57.221Z,-0.74
2022-12-09T21:52:29.791Z,-0.75
2022-12-09T21:55:02.546Z,-0.78
2022-12-09T21:57:36.273Z,-0.78
2022-12-09T22:00:10.747Z,-0.77
2022-12-09T22:02:44.613Z,-0.78
2022-12-09T22:05:17.166Z,-0.77
2022-12-09T22:07:50.909Z,-0.76
2022-12-09T22:10:23.219Z,-0.74
2022-12-09T22:12:56.013Z,-0.74
2022-12-09T22:15:28.573Z,-0.73
2022-12-09T22:18:01.469Z,-0.73
2022-12-09T22:21:07.934Z,-0.76
2022-12-09T22:23:07.895Z,-0.74
2022-12-09T22:25:40.608Z,-0.74
2022-12-09T22:28:12.808Z,-0.75
2022-12-09T22:30:44.922Z,-0.76
2022-12-09T22:33:17.145Z,-0.76
2022-12-09T22:35:49.490Z,-0.77
2022-12-09T22:38:22.353Z,-0.76
2022-12-09T22:40:54.387Z,-0.77
2022-12-09T22:43:27.351Z,-0.79
2022-12-09T22:46:07.903Z,-0.78
2022-12-09T22:48:41.057Z,-0.77
2022-12-09T22:51:17.616Z,-0.75
2022-12-09T22:53:51.290Z,-0.74
2022-12-09T22:56:25.014Z,-0.69
2022-12-09T22:58:57.257Z,-0.67
2022-12-09T23:01:33.086Z,-0.66
2022-12-09T23:04:07.053Z,-0.67
2022-12-09T23:06:40.915Z,-0.67
2022-12-09T23:09:16.204Z,-0.67
2022-12-09T23:11:49.163Z,-0.64
2022-12-09T23:14:22.070Z,-0.64
2022-12-09T23:16:54.294Z,-0.63
2022-12-09T23:19:26.887Z,-0.62
2022-12-09T23:21:59.483Z,-0.60
2022-12-09T23:24:31.736Z,-0.59
2022-12-09T23:27:04.720Z,-0.58
2022-12-09T23:29:36.963Z,-0.57
2022-12-09T23:32:09.347Z,-0.57
2022-12-09T23:34:41.589Z,-0.55
2022-12-09T23:37:15.071Z,-0.54
2022-12-09T23:39:49.115Z,-0.53
2022-12-09T23:42:21.934Z,-0.51
2022-12-09T23:44:54.079Z,-0.33
2022-12-09T23:47:26.667Z,-0.47
2022-12-09T23:49:58.890Z,-0.48
2022-12-09T23:52:30.941Z,-0.49
2022-12-09T23:55:04.667Z,-0.49
2022-12-09T23:57:36.903Z,-0.50
